createdAt,value
2023-04-16T00:01:12.585Z,4.40
2023-04-16T00:03:44.683Z,4.88
2023-04-16T00:06:16.804Z,4.15
2023-04-16T00:08:48.835Z,4.68
2023-04-16T00:11:20.805Z,4.60
2023-04-16T00:13:54.121Z,4.30
2023-04-16T00:16:26.126Z,4.00
2023-04-16T00:18:58.084Z,6.07
2023-04-16T00:21:30.146Z,5.22
2023-04-16T00:24:02.145Z,4.90
2023-04-16T00:26:34.139Z,6.40
2023-04-16T00:29:07.948Z,5.78
2023-04-16T00:31:40.449Z,4.82
2023-04-16T00:34:12.393Z,4.82
2023-04-16T00:36:44.489Z,4.68
2023-04-16T00:39:16.436Z,4.20
2023-04-16T00:41:49.337Z,4.32
2023-04-16T00:44:22.647Z,4.18
2023-04-16T00:46:55.822Z,3.75
2023-04-16T00:49:28.058Z,5.03
2023-04-16T00:52:03.409Z,3.97
2023-04-16T00:54:35.968Z,3.97
2023-04-16T00:57:07.969Z,4.30
2023-04-16T00:59:41.942Z,3.88
2023-04-16T01:02:14.459Z,4.22
2023-04-16T01:04:46.599Z,4.60
2023-04-16T01:07:18.759Z,3.95
2023-04-16T01:09:50.733Z,4.28
2023-04-16T01:12:22.806Z,4.78
2023-04-16T01:14:56.569Z,4.53
2023-04-16T01:17:28.618Z,4.75
2023-04-16T01:20:00.613Z,4.20
2023-04-16T01:22:33.950Z,4.88
2023-04-16T01:25:06.343Z,4.18
2023-04-16T01:27:38.310Z,4.38
2023-04-16T01:30:10.922Z,3.88
2023-04-16T01:32:56.687Z,3.75
2023-04-16T01:35:28.768Z,4.63
2023-04-16T01:38:02.438Z,4.90
2023-04-16T01:40:34.701Z,4.68
2023-04-16T01:43:07.232Z,4.10
2023-04-16T01:45:39.166Z,4.50
2023-04-16T01:48:11.099Z,4.80
2023-04-16T01:50:43.108Z,4.70
2023-04-16T01:53:16.677Z,4.55
2023-04-16T01:55:48.661Z,4.63
2023-04-16T01:58:20.632Z,4.75
2023-04-16T02:00:52.753Z,4.78
2023-04-16T02:03:25.116Z,4.47
2023-04-16T02:05:58.117Z,5.22
2023-04-16T02:08:31.619Z,4.75
2023-04-16T02:11:03.781Z,5.05
2023-04-16T02:13:35.779Z,4.28
2023-04-16T02:16:07.919Z,5.00
2023-04-16T02:18:54.438Z,4.57
2023-04-16T02:21:28.964Z,4.55
2023-04-16T02:24:02.477Z,4.57
2023-04-16T02:26:36.001Z,4.63
2023-04-16T02:29:13.297Z,4.47
2023-04-16T02:31:50.155Z,4.07
2023-04-16T02:34:22.689Z,4.55
2023-04-16T02:36:55.115Z,4.03
2023-04-16T02:39:28.793Z,4.40
2023-04-16T02:42:02.705Z,4.47
2023-04-16T02:44:34.747Z,3.65
2023-04-16T02:47:06.681Z,4.18
2023-04-16T02:49:38.671Z,4.28
2023-04-16T02:52:10.650Z,5.13
2023-04-16T02:54:43.977Z,4.00
2023-04-16T02:57:16.049Z,4.10
2023-04-16T02:59:48.028Z,4.85
2023-04-16T03:02:20.162Z,4.57
2023-04-16T03:04:52.204Z,5.13
2023-04-16T03:07:24.466Z,4.68
2023-04-16T03:09:57.878Z,4.93
2023-04-16T03:12:29.851Z,4.75
2023-04-16T03:15:01.971Z,3.97
2023-04-16T03:17:35.198Z,5.03
2023-04-16T03:20:09.230Z,4.18
2023-04-16T03:22:41.193Z,4.28
2023-04-16T03:25:14.795Z,4.75
2023-04-16T03:27:46.757Z,5.32
2023-04-16T03:30:19.947Z,4.28
2023-04-16T03:32:52.078Z,4.45
2023-04-16T03:35:24.085Z,4.82
2023-04-16T03:37:56.346Z,4.38
2023-04-16T03:40:29.737Z,3.95
2023-04-16T03:43:01.954Z,4.68
2023-04-16T03:45:34.279Z,4.85
2023-04-16T03:48:06.772Z,4.50
2023-04-16T03:50:38.777Z,4.53
2023-04-16T03:53:13.642Z,3.90
2023-04-16T03:55:50.220Z,4.18
2023-04-16T03:58:22.627Z,4.68
2023-04-16T04:00:55.573Z,4.72
2023-04-16T04:03:27.939Z,4.70
2023-04-16T04:06:00.687Z,4.30
2023-04-16T04:08:35.326Z,4.22
2023-04-16T04:11:10.528Z,4.60
2023-04-16T04:13:44.183Z,5.80
2023-04-16T04:16:16.532Z,4.28
2023-04-16T04:18:48.994Z,6.75
2023-04-16T04:21:21.155Z,5.07
2023-04-16T04:23:54.426Z,5.22
2023-04-16T04:26:29.036Z,5.60
2023-04-16T04:29:02.031Z,6.10
2023-04-16T04:31:35.582Z,5.78
2023-04-16T04:34:07.799Z,5.93
2023-04-16T04:36:39.964Z,5.13
2023-04-16T04:39:12.055Z,6.25
2023-04-16T04:41:47.564Z,5.65
2023-04-16T04:44:19.526Z,5.53
2023-04-16T04:46:51.684Z,5.53
2023-04-16T04:49:24.391Z,5.30
2023-04-16T04:51:56.592Z,5.07
2023-04-16T04:54:28.705Z,5.10
2023-04-16T04:57:01.984Z,5.10
2023-04-16T04:59:35.118Z,5.70
2023-04-16T05:02:07.722Z,5.40
2023-04-16T05:04:39.726Z,5.68
2023-04-16T05:07:11.694Z,5.35
2023-04-16T05:09:43.615Z,5.10
2023-04-16T05:12:17.249Z,5.85
2023-04-16T05:14:49.190Z,5.18
2023-04-16T05:17:21.214Z,5.53
2023-04-16T05:19:53.175Z,4.97
2023-04-16T05:22:25.324Z,5.65
2023-04-16T05:24:57.274Z,5.57
2023-04-16T05:27:30.617Z,5.63
2023-04-16T05:30:02.648Z,5.32
2023-04-16T05:32:34.734Z,7.90
2023-04-16T05:35:07.091Z,8.55
2023-04-16T05:37:39.059Z,8.63
2023-04-16T05:40:13.532Z,9.77
2023-04-16T05:42:46.950Z,9.05
2023-04-16T05:45:19.045Z,8.27
2023-04-16T05:47:51.037Z,5.20
2023-04-16T05:50:23.011Z,5.28
2023-04-16T05:52:55.033Z,6.15
2023-04-16T05:55:26.993Z,5.18
2023-04-16T05:58:00.355Z,5.20
2023-04-16T06:00:32.909Z,5.07
2023-04-16T06:03:05.100Z,4.38
2023-04-16T06:05:37.317Z,5.22
2023-04-16T06:08:09.379Z,5.40
2023-04-16T06:10:41.376Z,5.60
2023-04-16T06:13:14.933Z,6.40
2023-04-16T06:15:46.933Z,6.35
2023-04-16T06:18:18.924Z,4.95
2023-04-16T06:20:50.923Z,6.15
2023-04-16T06:23:22.830Z,6.13
2023-04-16T06:25:55.304Z,4.93
2023-04-16T06:28:28.645Z,4.85
2023-04-16T06:31:01.185Z,4.85
2023-04-16T06:33:33.327Z,5.10
2023-04-16T06:36:05.662Z,4.95
2023-04-16T06:38:37.651Z,5.10
2023-04-16T06:41:09.794Z,4.60
2023-04-16T06:43:43.970Z,5.47
2023-04-16T06:46:15.930Z,5.68
2023-04-16T06:48:47.934Z,5.13
2023-04-16T06:51:19.973Z,6.05
2023-04-16T06:53:51.913Z,5.82
2023-04-16T06:56:23.910Z,5.80
2023-04-16T06:58:58.947Z,5.25
2023-04-16T07:01:34.043Z,6.03
2023-04-16T07:04:06.521Z,5.38
2023-04-16T07:06:38.555Z,6.00
2023-04-16T07:09:11.155Z,5.65
2023-04-16T07:11:43.442Z,5.03
2023-04-16T07:14:16.809Z,5.57
2023-04-16T07:16:48.798Z,5.95
2023-04-16T07:19:21.162Z,5.60
2023-04-16T07:21:53.121Z,6.15
2023-04-16T07:24:25.079Z,6.13
2023-04-16T07:26:57.042Z,6.00
2023-04-16T07:29:30.469Z,5.45
2023-04-16T07:32:02.482Z,5.70
2023-04-16T07:34:34.510Z,6.70
2023-04-16T07:37:06.539Z,7.90
2023-04-16T07:39:38.576Z,6.28
2023-04-16T07:42:10.676Z,7.35
2023-04-16T07:44:44.120Z,7.30
2023-04-16T07:47:16.206Z,7.32
2023-04-16T07:49:48.202Z,7.22
2023-04-16T07:52:20.448Z,7.65
2023-04-16T07:54:52.501Z,7.07
2023-04-16T07:57:24.463Z,7.15
2023-04-16T07:59:57.776Z,6.85
2023-04-16T08:02:29.865Z,7.22
2023-04-16T08:05:02.082Z,7.68
2023-04-16T08:07:34.776Z,6.80
2023-04-16T08:10:08.325Z,7.25
2023-04-16T08:12:40.753Z,10.85
2023-04-16T08:15:14.144Z,7.30
2023-04-16T08:17:46.247Z,9.65
2023-04-16T08:20:19.395Z,7.10
2023-04-16T08:22:53.308Z,11.82
2023-04-16T08:25:25.462Z,7.97
2023-04-16T08:27:57.409Z,6.93
2023-04-16T08:30:31.101Z,8.60
2023-04-16T08:33:03.131Z,6.80
2023-04-16T08:35:35.143Z,7.55
2023-04-16T08:38:07.737Z,6.63
2023-04-16T08:40:40.968Z,8.15
2023-04-16T08:43:14.836Z,9.48
2023-04-16T08:45:48.846Z,18.20
2023-04-16T08:48:22.169Z,15.18
2023-04-16T08:50:55.501Z,11.05
2023-04-16T08:53:41.302Z,13.63
2023-04-16T08:56:14.794Z,24.05
2023-04-16T08:58:48.913Z,14.20
2023-04-16T09:01:22.842Z,15.15
2023-04-16T09:03:55.433Z,10.98
2023-04-16T09:06:28.256Z,9.38
2023-04-16T09:09:03.499Z,20.63
2023-04-16T09:11:35.914Z,22.15
2023-04-16T09:14:10.558Z,10.23
2023-04-16T09:16:45.631Z,10.50
2023-04-16T09:19:17.653Z,15.93
2023-04-16T09:21:50.210Z,8.70
2023-04-16T09:24:22.523Z,7.20
2023-04-16T09:26:55.031Z,7.60
2023-04-16T09:29:35.001Z,13.68
2023-04-16T09:32:10.107Z,8.30
2023-04-16T09:34:56.369Z,10.05
2023-04-16T09:37:30.002Z,7.95
2023-04-16T09:40:03.995Z,6.90
2023-04-16T09:42:40.052Z,7.03
2023-04-16T09:45:12.581Z,7.35
2023-04-16T09:47:46.584Z,6.45
2023-04-16T09:50:20.035Z,7.03
2023-04-16T09:52:52.138Z,15.93
2023-04-16T09:55:27.122Z,28.15
2023-04-16T09:58:00.421Z,15.05
2023-04-16T10:00:32.428Z,7.72
2023-04-16T10:03:07.236Z,7.28
2023-04-16T10:05:39.562Z,17.38
2023-04-16T10:08:12.993Z,9.57
2023-04-16T10:10:45.112Z,8.60
2023-04-16T10:13:19.216Z,8.07
2023-04-16T10:15:51.412Z,8.25
2023-04-16T10:18:24.853Z,8.13
2023-04-16T10:20:57.746Z,9.30
2023-04-16T10:23:30.448Z,11.93
2023-04-16T10:26:02.597Z,10.90
2023-04-16T10:28:37.397Z,8.63
2023-04-16T10:31:09.846Z,8.25
2023-04-16T10:33:44.980Z,13.48
2023-04-16T10:36:22.772Z,17.40
2023-04-16T10:38:59.095Z,12.45
2023-04-16T10:41:33.697Z,9.38
2023-04-16T10:44:09.590Z,14.63
2023-04-16T10:46:42.732Z,11.02
2023-04-16T10:49:19.212Z,10.40
2023-04-16T10:51:55.195Z,9.57
2023-04-16T10:54:28.599Z,8.45
2023-04-16T10:57:04.726Z,20.58
2023-04-16T10:59:38.537Z,10.40
2023-04-16T11:02:14.026Z,9.20
2023-04-16T11:04:48.470Z,14.30
2023-04-16T11:07:22.731Z,9.32
2023-04-16T11:10:02.556Z,12.95
2023-04-16T11:12:37.728Z,10.68
2023-04-16T11:15:12.001Z,6.95
2023-04-16T11:17:45.763Z,20.95
2023-04-16T11:20:21.036Z,20.75
2023-04-16T11:22:55.015Z,9.50
2023-04-16T11:25:34.257Z,7.68
2023-04-16T11:28:06.281Z,9.13
2023-04-16T11:30:39.796Z,7.40
2023-04-16T11:33:13.402Z,7.22
2023-04-16T11:35:57.956Z,7.78
2023-04-16T11:38:35.136Z,7.10
2023-04-16T11:41:07.348Z,7.57
2023-04-16T11:43:39.326Z,8.50
2023-04-16T11:46:20.492Z,8.00
2023-04-16T11:48:58.720Z,15.63
2023-04-16T11:51:32.561Z,8.85
2023-04-16T11:54:04.815Z,10.65
2023-04-16T11:56:39.844Z,12.23
2023-04-16T11:59:13.875Z,10.00
2023-04-16T12:01:48.384Z,9.35
2023-04-16T12:04:22.379Z,21.15
2023-04-16T12:07:11.337Z,10.38
2023-04-16T12:09:44.046Z,127.47
2023-04-16T12:12:26.872Z,13.23
2023-04-16T12:15:03.813Z,342.60
2023-04-16T12:17:36.706Z,302.50
2023-04-16T12:20:11.021Z,261.42
2023-04-16T12:22:47.168Z,37.28
2023-04-16T12:25:19.162Z,10.68
2023-04-16T12:27:53.854Z,7.90
2023-04-16T12:30:26.857Z,7.97
2023-04-16T12:33:14.997Z,8.45
2023-04-16T12:35:47.414Z,6.93
2023-04-16T12:38:22.197Z,8.07
2023-04-16T12:40:57.672Z,10.90
2023-04-16T12:43:29.745Z,11.88
2023-04-16T12:46:04.112Z,13.65
2023-04-16T12:48:36.770Z,10.52
2023-04-16T12:51:08.714Z,8.68
2023-04-16T12:53:42.071Z,8.70
2023-04-16T12:56:15.709Z,10.55
2023-04-16T12:58:50.738Z,10.68
2023-04-16T13:01:23.675Z,8.80
2023-04-16T13:03:56.199Z,9.57
2023-04-16T13:06:28.232Z,8.07
2023-04-16T13:09:01.651Z,9.40
2023-04-16T13:11:33.614Z,9.52
2023-04-16T13:14:05.563Z,9.63
2023-04-16T13:16:38.832Z,11.50
2023-04-16T13:19:11.050Z,11.35
2023-04-16T13:21:43.165Z,12.77
2023-04-16T13:24:16.513Z,14.93
2023-04-16T13:26:48.489Z,11.90
2023-04-16T13:29:20.800Z,11.77
2023-04-16T13:31:53.280Z,11.77
2023-04-16T13:34:25.455Z,13.05
2023-04-16T13:36:57.568Z,13.40
2023-04-16T13:39:31.494Z,18.08
2023-04-16T13:42:03.743Z,15.43
2023-04-16T13:44:35.761Z,14.50
2023-04-16T13:47:08.119Z,15.02
2023-04-16T13:49:40.405Z,11.85
2023-04-16T13:52:12.313Z,9.95
2023-04-16T13:54:45.677Z,10.13
2023-04-16T13:57:24.577Z,9.23
2023-04-16T13:59:56.662Z,9.82
2023-04-16T14:02:28.828Z,10.45
2023-04-16T14:05:01.011Z,11.55
2023-04-16T14:07:32.964Z,14.02
2023-04-16T14:10:07.754Z,11.82
2023-04-16T14:12:39.892Z,10.18
2023-04-16T14:15:14.698Z,12.65
2023-04-16T14:17:46.917Z,9.27
2023-04-16T14:20:18.970Z,13.73
2023-04-16T14:22:51.444Z,10.63
2023-04-16T14:25:25.114Z,11.07
2023-04-16T14:27:57.056Z,13.02
2023-04-16T14:30:29.228Z,13.43
2023-04-16T14:33:01.288Z,15.35
2023-04-16T14:35:36.416Z,16.02
2023-04-16T14:38:08.614Z,12.65
2023-04-16T14:40:42.120Z,16.23
2023-04-16T14:43:14.176Z,11.55
2023-04-16T14:45:46.325Z,10.43
2023-04-16T14:48:18.349Z,10.13
2023-04-16T14:50:50.664Z,19.85
2023-04-16T14:53:23.793Z,13.48
2023-04-16T14:55:59.075Z,11.98
2023-04-16T14:58:31.487Z,10.15
2023-04-16T15:01:03.617Z,8.68
2023-04-16T15:03:36.184Z,9.65
2023-04-16T15:06:08.765Z,10.63
2023-04-16T15:08:40.799Z,10.63
2023-04-16T15:11:14.217Z,9.80
2023-04-16T15:13:46.193Z,9.80
2023-04-16T15:16:18.547Z,11.23
2023-04-16T15:18:50.817Z,13.13
2023-04-16T15:21:22.992Z,11.32
2023-04-16T15:23:54.988Z,11.25
2023-04-16T15:26:28.456Z,14.07
2023-04-16T15:29:00.646Z,13.98
2023-04-16T15:31:32.762Z,37.85
2023-04-16T15:34:04.704Z,13.40
2023-04-16T15:36:36.650Z,12.82
2023-04-16T15:39:09.648Z,10.20
2023-04-16T15:41:57.523Z,12.38
2023-04-16T15:44:32.027Z,18.65
2023-04-16T15:47:06.361Z,49.15
2023-04-16T15:49:38.481Z,14.43
2023-04-16T15:52:11.942Z,14.13
2023-04-16T15:54:43.935Z,12.13
2023-04-16T15:57:17.340Z,13.70
2023-04-16T16:00:05.408Z,13.70
2023-04-16T16:02:39.482Z,14.05
2023-04-16T16:05:12.871Z,12.73
2023-04-16T16:07:45.166Z,20.73
2023-04-16T16:10:17.226Z,15.73
2023-04-16T16:12:50.876Z,15.75
2023-04-16T16:15:22.810Z,12.57
2023-04-16T16:17:55.643Z,13.48
2023-04-16T16:20:27.953Z,11.65
2023-04-16T16:23:00.196Z,13.75
2023-04-16T16:25:32.163Z,59.03
2023-04-16T16:28:06.704Z,23.00
2023-04-16T16:30:38.812Z,13.45
2023-04-16T16:33:11.591Z,13.77
2023-04-16T16:35:43.555Z,12.38
2023-04-16T16:38:15.901Z,15.23
2023-04-16T16:40:47.900Z,16.73
2023-04-16T16:43:21.538Z,17.23
2023-04-16T16:45:53.434Z,15.52
2023-04-16T16:48:25.471Z,25.58
2023-04-16T16:50:57.434Z,18.33
2023-04-16T16:53:29.435Z,15.40
2023-04-16T16:56:01.450Z,15.52
2023-04-16T16:58:35.102Z,15.50
2023-04-16T17:01:07.204Z,13.25
2023-04-16T17:03:39.284Z,16.52
2023-04-16T17:06:11.546Z,15.75
2023-04-16T17:08:43.544Z,22.27
2023-04-16T17:11:16.071Z,16.58
2023-04-16T17:13:49.562Z,14.13
2023-04-16T17:16:21.505Z,20.15
2023-04-16T17:18:53.526Z,15.88
2023-04-16T17:21:27.896Z,25.38
2023-04-16T17:24:00.175Z,19.30
2023-04-16T17:26:32.149Z,17.73
2023-04-16T17:29:05.667Z,26.95
2023-04-16T17:31:37.806Z,19.67
2023-04-16T17:34:10.188Z,24.35
2023-04-16T17:36:42.590Z,16.80
2023-04-16T17:39:14.756Z,14.63
2023-04-16T17:41:46.668Z,15.85
2023-04-16T17:44:20.089Z,13.52
2023-04-16T17:46:52.027Z,13.73
2023-04-16T17:49:24.125Z,11.07
2023-04-16T17:51:56.067Z,10.73
2023-04-16T17:54:28.160Z,12.30
2023-04-16T17:57:00.164Z,12.63
2023-04-16T17:59:33.563Z,18.20
2023-04-16T18:02:06.081Z,15.85
2023-04-16T18:04:38.411Z,13.77
2023-04-16T18:07:10.460Z,13.35
2023-04-16T18:09:42.586Z,13.02
2023-04-16T18:12:14.559Z,10.38
2023-04-16T18:14:47.946Z,12.55
2023-04-16T18:17:21.941Z,14.57
2023-04-16T18:19:53.935Z,12.05
2023-04-16T18:22:27.580Z,13.48
2023-04-16T18:25:00.382Z,13.57
2023-04-16T18:27:32.361Z,12.82
2023-04-16T18:30:07.034Z,13.48
2023-04-16T18:32:49.449Z,13.48
2023-04-16T18:35:31.055Z,13.68
2023-04-16T18:38:02.984Z,14.55
2023-04-16T18:40:35.570Z,13.68
2023-04-16T18:43:07.640Z,13.07
2023-04-16T18:45:41.765Z,12.43
2023-04-16T18:48:13.726Z,12.50
2023-04-16T18:50:45.732Z,16.23
2023-04-16T18:53:17.707Z,12.88
2023-04-16T18:55:52.907Z,12.02
2023-04-16T18:58:24.930Z,11.68
2023-04-16T19:00:59.021Z,16.27
2023-04-16T19:03:32.097Z,12.90
2023-04-16T19:06:04.428Z,11.07
2023-04-16T19:08:36.504Z,12.85
2023-04-16T19:11:08.557Z,11.98
2023-04-16T19:13:40.900Z,10.55
2023-04-16T19:16:14.608Z,12.23
2023-04-16T19:18:46.613Z,11.13
2023-04-16T19:21:18.622Z,10.93
2023-04-16T19:23:50.807Z,10.68
2023-04-16T19:26:22.747Z,10.68
2023-04-16T19:28:54.712Z,12.80
2023-04-16T19:31:29.641Z,11.50
2023-04-16T19:34:01.608Z,15.27
2023-04-16T19:36:33.590Z,12.38
2023-04-16T19:39:06.211Z,9.75
2023-04-16T19:41:38.180Z,15.52
2023-04-16T19:44:11.132Z,11.82
2023-04-16T19:46:44.514Z,12.20
2023-04-16T19:49:16.470Z,10.18
2023-04-16T19:51:48.423Z,10.05
2023-04-16T19:54:20.837Z,10.93
2023-04-16T19:56:52.904Z,10.35
2023-04-16T19:59:28.127Z,10.95
2023-04-16T20:02:01.675Z,11.50
2023-04-16T20:04:34.430Z,11.88
2023-04-16T20:07:06.515Z,9.63
2023-04-16T20:09:38.489Z,9.93
2023-04-16T20:12:10.929Z,10.95
2023-04-16T20:14:43.900Z,10.88
2023-04-16T20:17:18.649Z,9.90
2023-04-16T20:19:51.220Z,10.50
2023-04-16T20:22:23.423Z,9.45
2023-04-16T20:24:55.430Z,8.55
2023-04-16T20:27:27.459Z,10.13
2023-04-16T20:29:59.694Z,9.52
2023-04-16T20:32:33.210Z,9.07
2023-04-16T20:35:10.409Z,9.82
2023-04-16T20:37:43.141Z,9.45
2023-04-16T20:40:16.474Z,8.63
2023-04-16T20:42:50.973Z,10.40
2023-04-16T20:45:24.272Z,9.52
2023-04-16T20:47:57.877Z,10.40
2023-04-16T20:50:30.336Z,10.30
2023-04-16T20:53:02.337Z,10.43
2023-04-16T20:55:34.330Z,9.27
2023-04-16T20:58:06.532Z,9.88
2023-04-16T21:00:38.566Z,10.38
2023-04-16T21:03:12.048Z,9.98
2023-04-16T21:05:47.841Z,10.05
2023-04-16T21:08:20.149Z,10.80
2023-04-16T21:10:52.080Z,8.73
2023-04-16T21:13:24.054Z,9.57
2023-04-16T21:15:55.978Z,9.80
2023-04-16T21:18:29.466Z,9.15
2023-04-16T21:21:01.640Z,9.40
2023-04-16T21:23:33.654Z,10.43
2023-04-16T21:26:05.809Z,9.38
2023-04-16T21:28:37.800Z,9.50
2023-04-16T21:31:09.777Z,10.20
2023-04-16T21:33:43.141Z,11.80
2023-04-16T21:36:15.584Z,11.20
2023-04-16T21:38:47.524Z,13.18
2023-04-16T21:41:19.450Z,12.23
2023-04-16T21:43:51.697Z,10.90
2023-04-16T21:46:23.619Z,11.10
2023-04-16T21:48:57.056Z,12.57
2023-04-16T21:51:29.803Z,11.60
2023-04-16T21:54:01.768Z,10.15
2023-04-16T21:56:33.688Z,9.77
2023-04-16T21:59:05.697Z,12.75
2023-04-16T22:01:37.675Z,12.05
2023-04-16T22:04:12.266Z,12.32
2023-04-16T22:06:46.326Z,9.70
2023-04-16T22:09:18.280Z,9.88
2023-04-16T22:11:50.308Z,11.13
2023-04-16T22:14:22.309Z,11.88
2023-04-16T22:16:55.130Z,11.27
2023-04-16T22:19:28.768Z,10.95
2023-04-16T22:22:00.835Z,12.02
2023-04-16T22:24:32.818Z,12.70
2023-04-16T22:27:04.866Z,12.98
2023-04-16T22:29:36.778Z,12.18
2023-04-16T22:32:08.848Z,11.95
2023-04-16T22:34:42.248Z,11.88
2023-04-16T22:37:14.189Z,11.43
2023-04-16T22:39:46.111Z,12.00
2023-04-16T22:42:18.121Z,11.82
2023-04-16T22:44:50.069Z,13.15
2023-04-16T22:47:22.647Z,14.93
2023-04-16T22:49:56.027Z,12.68
2023-04-16T22:52:27.963Z,13.35
2023-04-16T22:54:59.920Z,15.05
2023-04-16T22:57:31.934Z,13.18
2023-04-16T23:00:06.898Z,13.93
2023-04-16T23:02:38.973Z,11.02
2023-04-16T23:05:12.485Z,13.85
2023-04-16T23:07:44.528Z,15.07
2023-04-16T23:10:16.690Z,13.90
2023-04-16T23:12:48.628Z,14.25
2023-04-16T23:15:20.646Z,14.07
2023-04-16T23:17:52.690Z,12.45
2023-04-16T23:20:26.250Z,13.90
2023-04-16T23:22:58.181Z,13.50
2023-04-16T23:25:30.196Z,14.07
2023-04-16T23:28:02.207Z,12.07
2023-04-16T23:30:34.156Z,11.43
2023-04-16T23:33:06.172Z,13.88
2023-04-16T23:35:39.564Z,14.55
2023-04-16T23:38:11.501Z,11.50
2023-04-16T23:40:43.449Z,14.40
2023-04-16T23:43:15.421Z,12.45
2023-04-16T23:45:47.413Z,12.05
2023-04-16T23:48:19.404Z,10.00
2023-04-16T23:50:52.738Z,13.88
2023-04-16T23:53:24.771Z,12.80
2023-04-16T23:55:56.728Z,14.18
2023-04-16T23:58:28.764Z,11.00
